TimeCST,TemperatureF,Dew PointF,Humidity,Sea Level PressureIn,VisibilityMPH,Wind Direction,Wind SpeedMPH,Gust SpeedMPH,PrecipitationIn,Events,Conditions,WindDirDegrees,DateUTC
12:55 AM,26.1,17.1,69,30.32,10.0,West,9.2,-,N/A,,Clear,270,2012-01-28 06:55:00
1:55 AM,26.1,18.0,71,30.34,10.0,WSW,9.2,-,N/A,,Clear,250,2012-01-28 07:55:00
2:55 AM,25.0,18.0,75,30.34,10.0,WSW,10.4,-,N/A,,Clear,250,2012-01-28 08:55:00
3:55 AM,24.1,17.1,75,30.34,10.0,West,9.2,-,N/A,,Clear,260,2012-01-28 09:55:00
4:55 AM,24.1,17.1,75,30.31,10.0,West,8.1,-,N/A,,Clear,270,2012-01-28 10:55:00
5:55 AM,21.2,17.6,86,30.30,10.0,WSW,9.2,-,N/A,,Clear,250,2012-01-28 11:55:00
6:55 AM,19.9,16.0,85,30.35,10.0,West,11.5,-,N/A,,Clear,260,2012-01-28 12:55:00
7:55 AM,19.9,15.1,81,30.35,10.0,West,11.5,-,N/A,,Clear,260,2012-01-28 13:55:00
8:55 AM,23.0,15.1,72,30.38,10.0,West,13.8,-,N/A,,Clear,270,2012-01-28 14:55:00
9:55 AM,28.9,16.0,58,30.40,10.0,West,12.7,-,N/A,,Clear,270,2012-01-28 15:55:00
10:55 AM,35.1,16.0,46,30.39,10.0,West,15.0,-,N/A,,Clear,270,2012-01-28 16:55:00
11:55 AM,39.9,14.0,35,30.36,10.0,West,21.9,31.1,N/A,,Clear,270,2012-01-28 17:55:00
12:55 PM,45.0,12.0,26,30.32,10.0,West,24.2,38.0,N/A,,Clear,270,2012-01-28 18:55:00
1:55 PM,48.9,9.0,20,30.29,10.0,West,24.2,34.5,N/A,,Clear,280,2012-01-28 19:55:00
2:55 PM,48.0,6.1,18,30.27,10.0,WNW,21.9,32.2,N/A,,Clear,290,2012-01-28 20:55:00
3:55 PM,46.9,7.0,20,30.27,10.0,WNW,15.0,31.1,N/A,,Clear,300,2012-01-28 21:55:00
4:55 PM,44.6,6.8,21,30.24,10.0,WNW,11.5,20.7,N/A,,Clear,290,2012-01-28 22:55:00
5:55 PM,37.9,7.0,28,30.28,10.0,West,6.9,-,N/A,,Clear,260,2012-01-28 23:55:00
6:55 PM,34.0,7.0,32,30.29,10.0,West,6.9,-,N/A,,Clear,260,2012-01-29 00:55:00
7:55 PM,33.1,8.1,35,30.28,10.0,WSW,8.1,-,N/A,,Clear,240,2012-01-29 01:55:00
8:55 PM,36.0,8.1,31,30.27,10.0,WSW,8.1,-,N/A,,Clear,240,2012-01-29 02:55:00
9:55 PM,34.0,8.1,34,30.27,10.0,WSW,9.2,-,N/A,,Scattered Clouds,240,2012-01-29 03:55:00
10:55 PM,34.0,8.1,34,30.27,10.0,WSW,8.1,-,N/A,,Overcast,240,2012-01-29 04:55:00
11:55 PM,33.8,8.6,35,30.23,10.0,WSW,8.1,-,N/A,,Mostly Cloudy,240,2012-01-29 05:55:00